Time;durP1;ratioP1;P1;durP2;ratioP2;P2;SDS_P1;SDS_P2;PMS_P1;PMS_P2;Temp;Humidity;BMP_temperature;BMP_pressure;BME280_temperature;BME280_humidity;BME280_pressure;Samples;Min_cycle;Max_cycle;Signal;HPM_P1;HPM_P2
2021/03/09 06:32:41;;;;;;;28.25;16.38;;;;;;;;;;5498829;23;23505;-64
2021/03/09 06:35:08;;;;;;;31.23;16.15;;;;;;;;;;4975222;28;20454;-65
2021/03/09 06:37:37;;;;;;;33.05;16.67;;;;;;;;;;4957196;28;20385;-65
2021/03/09 06:40:06;;;;;;;29.60;15.30;;;;;;;;;;4939124;28;20039;-65
2021/03/09 06:42:39;;;;;;;28.15;15.68;;;;;;;;;;4975244;28;20458;-64
2021/03/09 06:45:12;;;;;;;32.80;15.43;;;;;;;;;;4973297;28;20023;-64
2021/03/09 06:47:45;;;;;;;30.48;15.70;;;;;;;;;;4974525;28;20031;-64
2021/03/09 06:50:18;;;;;;;29.92;15.30;;;;;;;;;;4974229;28;20027;-64
2021/03/09 06:52:59;;;;;;;30.42;15.88;;;;;;;;;;4974821;28;20135;-64
2021/03/09 06:55:30;;;;;;;29.52;14.93;;;;;;;;;;4974229;28;20031;-64
2021/03/09 06:58:06;;;;;;;28.10;14.52;;;;;;;;;;4975145;28;20110;-65
2021/03/09 07:00:33;;;;;;;27.75;14.60;;;;;;;;;;4975208;28;20039;-63
2021/03/09 07:03:00;;;;;;;27.00;15.30;;;;;;;;;;4975308;28;20042;-64
2021/03/09 07:05:27;;;;;;;30.55;16.85;;;;;;;;;;4974021;28;20022;-65
2021/03/09 07:07:53;;;;;;;32.47;17.88;;;;;;;;;;4981933;28;20094;-64
2021/03/09 07:10:20;;;;;;;32.17;17.80;;;;;;;;;;4984509;28;20433;-65
2021/03/09 07:12:47;;;;;;;33.20;18.80;;;;;;;;;;4962564;28;20125;-66
2021/03/09 07:15:17;;;;;;;35.63;19.85;;;;;;;;;;4983195;28;20429;-65
2021/03/09 07:17:45;;;;;;;35.90;18.90;;;;;;;;;;4984362;28;20019;-64
2021/03/09 07:20:12;;;;;;;39.30;21.13;;;;;;;;;;4983395;28;20480;-62
2021/03/09 07:22:39;;;;;;;43.70;21.52;;;;;;;;;;4965247;28;20364;-63
2021/03/09 07:25:12;;;;;;;44.70;22.55;;;;;;;;;;4984520;28;20022;-63
2021/03/09 07:27:57;;;;;;;54.08;23.73;;;;;;;;;;4983576;28;20105;-65
2021/03/09 07:30:24;;;;;;;51.78;23.58;;;;;;;;;;4983553;28;20354;-63
2021/03/09 07:32:53;;;;;;;42.30;19.73;;;;;;;;;;4983171;28;20053;-63
2021/03/09 07:35:20;;;;;;;48.80;21.13;;;;;;;;;;4979002;28;20436;-65
2021/03/09 07:37:47;;;;;;;44.08;19.83;;;;;;;;;;4979567;28;20030;-63
2021/03/09 07:40:15;;;;;;;40.15;19.85;;;;;;;;;;4983372;28;20026;-65
2021/03/09 07:42:41;;;;;;;39.55;20.10;;;;;;;;;;4983791;28;20126;-67
2021/03/09 07:45:11;;;;;;;38.92;20.60;;;;;;;;;;4962358;28;20019;-63
2021/03/09 07:47:51;;;;;;;37.83;19.95;;;;;;;;;;4981554;28;20057;-63
2021/03/09 07:50:18;;;;;;;41.05;20.55;;;;;;;;;;4981913;28;20037;-65
2021/03/09 07:52:59;;;;;;;37.60;19.50;;;;;;;;;;4984200;28;20080;-64
2021/03/09 07:55:26;;;;;;;35.42;19.55;;;;;;;;;;4983951;28;20023;-65
2021/03/09 07:58:12;;;;;;;38.10;20.42;;;;;;;;;;4982951;28;20015;-65
2021/03/09 08:00:57;;;;;;;34.03;18.85;;;;;;;;;;4982785;28;20443;-64
2021/03/09 08:03:26;;;;;;;38.00;19.75;;;;;;;;;;4981036;28;20062;-66
2021/03/09 08:05:53;;;;;;;36.00;19.23;;;;;;;;;;4982826;28;20019;-63
2021/03/09 08:08:38;;;;;;;39.78;20.23;;;;;;;;;;4982119;28;20027;-66
2021/03/09 08:11:04;;;;;;;42.58;20.60;;;;;;;;;;4980037;28;20030;-64
2021/03/09 08:13:31;;;;;;;47.67;25.25;;;;;;;;;;4982683;28;20462;-63
2021/03/09 08:16:16;;;;;;;50.97;27.50;;;;;;;;;;4982730;28;20018;-64
2021/03/09 08:18:42;;;;;;;60.20;31.60;;;;;;;;;;4984195;28;20035;-64
2021/03/09 08:21:09;;;;;;;56.30;29.42;;;;;;;;;;4985814;28;20030;-65
2021/03/09 08:23:35;;;;;;;54.33;25.30;;;;;;;;;;4984898;28;20082;-63
2021/03/09 08:26:02;;;;;;;71.10;31.13;;;;;;;;;;4984788;28;20022;-64
2021/03/09 08:28:35;;;;;;;40.38;21.52;;;;;;;;;;4980877;28;20026;-64
2021/03/09 08:31:16;;;;;;;35.55;20.98;;;;;;;;;;4977808;28;20366;-65
2021/03/09 08:33:42;;;;;;;41.13;21.60;;;;;;;;;;4975658;28;20485;-66
2021/03/09 08:36:20;;;;;;;43.40;23.65;;;;;;;;;;4977528;28;20031;-64
2021/03/09 08:41:37;;;;;;;42.88;22.40;;;;;;;;;;4973739;28;20035;-65
2021/03/09 08:44:21;;;;;;;38.13;21.42;;;;;;;;;;4975673;28;20373;-67
2021/03/09 08:47:03;;;;;;;44.03;23.40;;;;;;;;;;4977868;28;20101;-65
2021/03/09 08:49:35;;;;;;;53.97;26.50;;;;;;;;;;4977730;28;20038;-72
2021/03/09 08:52:02;;;;;;;36.38;20.67;;;;;;;;;;4960641;28;20038;-71
2021/03/09 08:54:32;;;;;;;31.63;19.88;;;;;;;;;;4977367;28;20413;-73
2021/03/09 08:56:59;;;;;;;43.78;22.88;;;;;;;;;;4977707;28;20027;-69
2021/03/09 08:59:30;;;;;;;38.45;20.85;;;;;;;;;;4959974;28;20026;-70
2021/03/09 09:02:03;;;;;;;34.92;20.15;;;;;;;;;;4959623;28;20023;-72
2021/03/09 09:04:30;;;;;;;36.47;21.17;;;;;;;;;;4960138;28;20033;-74
2021/03/09 09:06:56;;;;;;;36.88;20.85;;;;;;;;;;4959742;28;20023;-69
2021/03/09 09:09:34;;;;;;;36.90;21.58;;;;;;;;;;4960028;28;20086;-71
2021/03/09 09:12:18;;;;;;;54.63;29.52;;;;;;;;;;4958090;28;20122;-72
2021/03/09 09:14:44;;;;;;;50.10;25.38;;;;;;;;;;4976871;28;20049;-68
2021/03/09 09:17:10;;;;;;;47.88;24.60;;;;;;;;;;4977036;28;20027;-72
2021/03/09 09:19:36;;;;;;;39.22;22.10;;;;;;;;;;4977175;28;20378;-72
2021/03/09 09:22:03;;;;;;;61.20;34.10;;;;;;;;;;4976822;28;20051;-74
2021/03/09 09:24:29;;;;;;;46.15;26.45;;;;;;;;;;4976385;28;20030;-70
2021/03/09 09:27:01;;;;;;;46.88;25.90;;;;;;;;;;4955227;28;20114;-70
2021/03/09 09:29:27;;;;;;;34.95;20.33;;;;;;;;;;4939209;29;20030;-72
2021/03/09 09:31:57;;;;;;;37.47;20.25;;;;;;;;;;4958751;28;20027;-73
2021/03/09 09:34:35;;;;;;;33.95;19.40;;;;;;;;;;4954551;29;20050;-70
2021/03/09 09:37:14;;;;;;;25.60;15.27;;;;;;;;;;4944195;28;20035;-71
2021/03/09 09:39:41;;;;;;;27.40;15.93;;;;;;;;;;4961638;28;20035;-71
2021/03/09 09:42:14;;;;;;;35.65;19.35;;;;;;;;;;4940259;29;20031;-70
2021/03/09 09:44:41;;;;;;;33.22;18.70;;;;;;;;;;4940626;29;20030;-71
2021/03/09 09:47:08;;;;;;;27.55;15.98;;;;;;;;;;4940583;29;20074;-71
2021/03/09 09:49:34;;;;;;;42.65;23.05;;;;;;;;;;4939946;29;20032;-71
2021/03/09 09:52:00;;;;;;;30.20;18.27;;;;;;;;;;4941717;29;20059;-71
2021/03/09 09:54:26;;;;;;;21.48;13.00;;;;;;;;;;4941569;29;20030;-72
2021/03/09 09:56:52;;;;;;;23.75;13.85;;;;;;;;;;4940799;29;20195;-72
2021/03/09 09:59:26;;;;;;;27.48;14.98;;;;;;;;;;4941405;29;20530;-70
2021/03/09 10:01:52;;;;;;;29.77;16.77;;;;;;;;;;4957724;29;20038;-72
2021/03/09 10:04:18;;;;;;;31.38;17.58;;;;;;;;;;4939927;29;20375;-70
2021/03/09 10:06:44;;;;;;;31.02;17.55;;;;;;;;;;4957266;29;20042;-72
2021/03/09 10:09:17;;;;;;;33.75;19.60;;;;;;;;;;4957402;29;20015;-72
2021/03/09 10:11:45;;;;;;;37.40;20.27;;;;;;;;;;4951576;28;20474;-73
2021/03/09 10:14:11;;;;;;;28.60;16.85;;;;;;;;;;4958478;28;20078;-71
2021/03/09 10:16:38;;;;;;;34.42;19.35;;;;;;;;;;4948295;28;20482;-74
2021/03/09 10:19:04;;;;;;;61.88;32.05;;;;;;;;;;4948657;28;20071;-74
2021/03/09 10:21:34;;;;;;;35.40;19.83;;;;;;;;;;4964682;28;20053;-75
2021/03/09 10:24:01;;;;;;;34.85;19.17;;;;;;;;;;4947916;28;20069;-74
2021/03/09 10:26:36;;;;;;;33.30;18.83;;;;;;;;;;4948677;28;20027;-73
2021/03/09 10:29:16;;;;;;;33.55;18.20;;;;;;;;;;4948901;28;20018;-73
2021/03/09 10:31:49;;;;;;;33.65;18.23;;;;;;;;;;4948552;28;20125;-74
2021/03/09 10:34:17;;;;;;;38.17;20.05;;;;;;;;;;4948640;28;20074;-72
2021/03/09 10:36:49;;;;;;;29.73;17.83;;;;;;;;;;4945302;28;20026;-72
2021/03/09 10:39:15;;;;;;;30.30;17.27;;;;;;;;;;4964631;28;20024;-71
2021/03/09 10:41:41;;;;;;;30.70;17.00;;;;;;;;;;4938559;29;20027;-73
2021/03/09 10:44:25;;;;;;;33.22;19.42;;;;;;;;;;4942738;28;20032;-73
2021/03/09 10:46:51;;;;;;;34.33;19.17;;;;;;;;;;4944044;29;20533;-74
2021/03/09 10:49:18;;;;;;;30.00;17.55;;;;;;;;;;4938930;28;20029;-71
2021/03/09 10:51:44;;;;;;;35.10;18.27;;;;;;;;;;4947220;28;20074;-75
2021/03/09 10:54:10;;;;;;;33.17;19.10;;;;;;;;;;4947452;28;20082;-74
2021/03/09 10:56:36;;;;;;;36.90;22.08;;;;;;;;;;4945849;28;20082;-72
2021/03/09 10:59:03;;;;;;;30.52;17.33;;;;;;;;;;4963604;28;20027;-73
2021/03/09 11:01:33;;;;;;;26.98;15.30;;;;;;;;;;4945584;28;20406;-73
2021/03/09 11:03:59;;;;;;;30.70;16.33;;;;;;;;;;4950747;28;20386;-72
2021/03/09 11:06:26;;;;;;;25.17;15.13;;;;;;;;;;4956044;28;20425;-76
2021/03/09 11:08:52;;;;;;;27.40;15.38;;;;;;;;;;4963419;28;20027;-72
2021/03/09 11:11:18;;;;;;;27.48;14.95;;;;;;;;;;4947320;28;20474;-73
2021/03/09 11:13:44;;;;;;;26.88;15.23;;;;;;;;;;4948273;28;20050;-72
2021/03/09 11:16:10;;;;;;;24.80;14.80;;;;;;;;;;4969974;28;20057;-72
2021/03/09 11:18:36;;;;;;;31.02;16.30;;;;;;;;;;4945948;28;20026;-73
2021/03/09 11:21:03;;;;;;;23.65;14.85;;;;;;;;;;4945950;28;20109;-72
2021/03/09 11:23:29;;;;;;;30.77;15.68;;;;;;;;;;4940926;28;20526;-73
2021/03/09 11:25:55;;;;;;;26.25;15.13;;;;;;;;;;4941828;29;20114;-74
2021/03/09 11:28:21;;;;;;;27.15;15.05;;;;;;;;;;4936963;29;20031;-72
2021/03/09 11:30:47;;;;;;;31.33;17.30;;;;;;;;;;4953461;28;20134;-73
2021/03/09 11:33:13;;;;;;;31.27;16.90;;;;;;;;;;4951043;28;20546;-74
2021/03/09 11:35:40;;;;;;;27.73;16.73;;;;;;;;;;4945406;28;20026;-74
2021/03/09 11:38:06;;;;;;;33.25;17.85;;;;;;;;;;4959712;28;20078;-71
2021/03/09 11:40:32;;;;;;;28.10;16.73;;;;;;;;;;4954102;29;20027;-75
2021/03/09 11:42:58;;;;;;;33.75;18.20;;;;;;;;;;4937270;29;20379;-73
2021/03/09 11:45:24;;;;;;;32.30;17.30;;;;;;;;;;4937078;29;20023;-73
2021/03/09 11:47:50;;;;;;;30.95;16.40;;;;;;;;;;4938373;29;20058;-73
2021/03/09 11:50:16;;;;;;;25.05;14.88;;;;;;;;;;4938608;29;20546;-74
2021/03/09 11:52:42;;;;;;;32.70;16.15;;;;;;;;;;4953852;28;20486;-75
2021/03/09 11:55:09;;;;;;;26.80;15.73;;;;;;;;;;4981152;28;20034;-75
2021/03/09 11:57:35;;;;;;;32.88;18.50;;;;;;;;;;4980969;28;20019;-75
2021/03/09 12:00:01;;;;;;;31.08;15.60;;;;;;;;;;4963953;28;20031;-75
2021/03/09 12:02:27;;;;;;;28.50;16.35;;;;;;;;;;4980792;28;20062;-73
2021/03/09 12:04:54;;;;;;;29.65;17.33;;;;;;;;;;4964169;28;20086;-73
2021/03/09 12:07:20;;;;;;;28.65;16.17;;;;;;;;;;4981403;28;20038;-73
2021/03/09 12:09:46;;;;;;;25.88;15.27;;;;;;;;;;4963562;28;20400;-73
2021/03/09 12:12:13;;;;;;;29.40;17.27;;;;;;;;;;4975621;28;20057;-75
2021/03/09 12:14:39;;;;;;;30.88;18.23;;;;;;;;;;4959038;28;20023;-73
2021/03/09 12:17:05;;;;;;;30.48;17.13;;;;;;;;;;4975037;28;20046;-74
2021/03/09 12:19:31;;;;;;;27.77;15.18;;;;;;;;;;4979933;28;20023;-74
2021/03/09 12:21:57;;;;;;;32.40;18.20;;;;;;;;;;4962777;28;20367;-75
2021/03/09 12:24:23;;;;;;;27.70;16.63;;;;;;;;;;4953328;29;20035;-76
2021/03/09 12:26:49;;;;;;;34.05;18.33;;;;;;;;;;4948781;28;20024;-77
2021/03/09 12:29:19;;;;;;;31.17;17.88;;;;;;;;;;4957814;28;20470;-70
2021/03/09 12:31:45;;;;;;;35.95;19.42;;;;;;;;;;4967796;28;20126;-76
2021/03/09 12:34:13;;;;;;;32.85;18.17;;;;;;;;;;4940661;29;20048;-77
2021/03/09 12:36:39;;;;;;;28.92;16.08;;;;;;;;;;4943662;29;20023;-78
2021/03/09 12:39:05;;;;;;;39.55;22.05;;;;;;;;;;4953978;29;20415;-75
2021/03/09 12:41:32;;;;;;;30.98;16.73;;;;;;;;;;4953107;28;20035;-75
2021/03/09 12:43:58;;;;;;;25.88;15.10;;;;;;;;;;4955711;29;20043;-74
2021/03/09 12:46:24;;;;;;;31.48;17.40;;;;;;;;;;4955747;29;20034;-74
2021/03/09 12:48:50;;;;;;;28.77;15.98;;;;;;;;;;4949781;29;20031;-71
2021/03/09 12:51:17;;;;;;;27.90;15.43;;;;;;;;;;4946224;28;20479;-72
2021/03/09 12:53:43;;;;;;;34.50;18.67;;;;;;;;;;4952618;28;20078;-73
2021/03/09 12:56:09;;;;;;;30.33;17.33;;;;;;;;;;4950090;29;20387;-72
2021/03/09 12:58:37;;;;;;;29.35;15.77;;;;;;;;;;4951530;29;20062;-75
2021/03/09 13:01:04;;;;;;;25.42;14.45;;;;;;;;;;4955742;29;20035;-72
2021/03/09 13:03:31;;;;;;;25.65;14.23;;;;;;;;;;4947884;29;20138;-72
2021/03/09 13:05:57;;;;;;;29.70;16.38;;;;;;;;;;4945541;29;20168;-74
2021/03/09 13:08:25;;;;;;;33.80;18.60;;;;;;;;;;4944280;29;20031;-73
2021/03/09 13:10:53;;;;;;;29.58;16.15;;;;;;;;;;4943585;29;20040;-73
2021/03/09 13:13:19;;;;;;;24.88;14.52;;;;;;;;;;4940823;29;20020;-75
2021/03/09 13:15:45;;;;;;;22.55;13.80;;;;;;;;;;4942111;29;20024;-73
2021/03/09 13:18:12;;;;;;;23.73;13.43;;;;;;;;;;4937283;29;20117;-75
2021/03/09 13:20:38;;;;;;;29.75;15.95;;;;;;;;;;4935315;29;20591;-73
2021/03/09 13:23:04;;;;;;;29.63;16.35;;;;;;;;;;4952174;29;20398;-75
2021/03/09 13:25:30;;;;;;;31.73;15.90;;;;;;;;;;4955465;29;20011;-75
2021/03/09 13:27:56;;;;;;;25.02;14.57;;;;;;;;;;4952219;29;20089;-75
2021/03/09 13:30:23;;;;;;;26.02;14.38;;;;;;;;;;4946931;29;20043;-75
2021/03/09 13:32:49;;;;;;;32.55;16.30;;;;;;;;;;4938098;29;20459;-75
2021/03/09 13:35:16;;;;;;;26.13;14.88;;;;;;;;;;4946915;29;20051;-77
2021/03/09 13:37:42;;;;;;;27.88;13.65;;;;;;;;;;4944752;29;20016;-76
2021/03/09 13:40:10;;;;;;;32.35;17.23;;;;;;;;;;4945766;29;20037;-74
2021/03/09 13:42:36;;;;;;;26.42;13.23;;;;;;;;;;4943114;29;20034;-74
2021/03/09 13:45:04;;;;;;;19.92;11.80;;;;;;;;;;4944155;29;20028;-75
2021/03/09 13:47:30;;;;;;;21.90;11.27;;;;;;;;;;4936698;29;20475;-73
2021/03/09 13:49:56;;;;;;;20.50;11.93;;;;;;;;;;4946783;29;20059;-73
2021/03/09 13:52:22;;;;;;;23.20;12.65;;;;;;;;;;4950472;29;20070;-75
2021/03/09 13:54:48;;;;;;;24.83;12.25;;;;;;;;;;4956106;29;20114;-73
2021/03/09 13:57:14;;;;;;;22.52;13.20;;;;;;;;;;4954548;29;20027;-73
2021/03/09 13:59:40;;;;;;;37.47;19.02;;;;;;;;;;4956790;29;20035;-76
2021/03/09 14:02:06;;;;;;;28.58;16.58;;;;;;;;;;4953058;29;20019;-75
2021/03/09 14:04:32;;;;;;;22.08;12.25;;;;;;;;;;4955776;29;20054;-74
2021/03/09 14:06:59;;;;;;;18.45;10.30;;;;;;;;;;4955812;29;20019;-73
2021/03/09 14:09:25;;;;;;;19.98;11.77;;;;;;;;;;4955333;29;20058;-77
2021/03/09 14:11:51;;;;;;;23.60;11.57;;;;;;;;;;4948963;29;20031;-79
2021/03/09 14:14:17;;;;;;;26.80;12.77;;;;;;;;;;4959696;28;20030;-76
2021/03/09 14:16:43;;;;;;;20.55;10.93;;;;;;;;;;4958041;28;20065;-76
2021/03/09 14:19:11;;;;;;;20.58;12.63;;;;;;;;;;4957086;28;20031;-74
2021/03/09 14:21:37;;;;;;;39.83;19.60;;;;;;;;;;4952822;29;20031;-77
2021/03/09 14:24:03;;;;;;;17.02;9.60;;;;;;;;;;4954395;28;20102;-76
2021/03/09 14:26:32;;;;;;;18.15;9.73;;;;;;;;;;4961546;28;20506;-74
2021/03/09 14:28:58;;;;;;;20.98;9.85;;;;;;;;;;4963220;28;20065;-73
2021/03/09 14:31:24;;;;;;;17.27;10.80;;;;;;;;;;4963391;28;20410;-75
2021/03/09 14:33:50;;;;;;;22.13;11.27;;;;;;;;;;4963417;28;20057;-79
2021/03/09 14:36:17;;;;;;;20.55;10.68;;;;;;;;;;4962142;28;20018;-70
2021/03/09 14:38:43;;;;;;;24.98;12.90;;;;;;;;;;4964452;28;20045;-69
2021/03/09 14:41:09;;;;;;;22.45;11.45;;;;;;;;;;4963779;28;20027;-68
2021/03/09 14:43:36;;;;;;;25.55;14.15;;;;;;;;;;4963633;28;20055;-70
2021/03/09 14:46:02;;;;;;;27.92;13.52;;;;;;;;;;4956168;29;20106;-72
2021/03/09 14:48:28;;;;;;;26.85;13.10;;;;;;;;;;4955630;29;20035;-73
2021/03/09 14:50:54;;;;;;;25.48;13.77;;;;;;;;;;4953711;29;20195;-72
2021/03/09 14:53:21;;;;;;;21.23;11.95;;;;;;;;;;4955309;29;20051;-71
2021/03/09 14:55:47;;;;;;;30.58;17.17;;;;;;;;;;4954908;29;20015;-72
2021/03/09 14:58:13;;;;;;;21.52;13.02;;;;;;;;;;4954653;29;20400;-71
2021/03/09 15:00:39;;;;;;;24.27;13.73;;;;;;;;;;4954796;29;20039;-72
2021/03/09 15:03:05;;;;;;;36.25;19.02;;;;;;;;;;4956321;29;20065;-70
2021/03/09 15:05:32;;;;;;;33.75;17.15;;;;;;;;;;4955497;29;20036;-71
2021/03/09 15:07:58;;;;;;;42.40;20.20;;;;;;;;;;4954851;29;20028;-72
2021/03/09 15:10:24;;;;;;;47.40;21.52;;;;;;;;;;4954706;29;20035;-73
2021/03/09 15:12:50;;;;;;;32.65;16.35;;;;;;;;;;4956025;29;20138;-70
2021/03/09 15:15:16;;;;;;;29.55;15.63;;;;;;;;;;4955215;29;20467;-71
2021/03/09 15:17:43;;;;;;;29.13;14.35;;;;;;;;;;4956206;29;20027;-72
2021/03/09 15:20:11;;;;;;;31.10;14.35;;;;;;;;;;4954737;29;20375;-71
2021/03/09 15:22:37;;;;;;;29.25;14.82;;;;;;;;;;4954640;29;20023;-70
2021/03/09 15:25:10;;;;;;;31.73;15.00;;;;;;;;;;4954293;29;20415;-72
2021/03/09 15:27:36;;;;;;;26.30;14.18;;;;;;;;;;4954172;28;20114;-72
2021/03/09 15:30:05;;;;;;;31.02;14.10;;;;;;;;;;4954217;29;20027;-72
2021/03/09 15:32:31;;;;;;;28.65;13.68;;;;;;;;;;4954197;29;20103;-74
2021/03/09 15:34:57;;;;;;;30.50;13.93;;;;;;;;;;4954428;29;20055;-71
2021/03/09 15:37:23;;;;;;;25.15;13.25;;;;;;;;;;4955898;29;20082;-72
2021/03/09 15:39:49;;;;;;;27.88;14.98;;;;;;;;;;4954143;29;20031;-71
2021/03/09 15:42:15;;;;;;;29.58;14.70;;;;;;;;;;4955726;29;20416;-74
2021/03/09 15:44:42;;;;;;;43.08;19.33;;;;;;;;;;4954169;29;20031;-70
2021/03/09 15:47:08;;;;;;;37.40;17.23;;;;;;;;;;4954163;29;20478;-73
2021/03/09 15:49:34;;;;;;;26.48;14.95;;;;;;;;;;4954227;29;20108;-70
2021/03/09 15:52:00;;;;;;;44.42;20.55;;;;;;;;;;4955465;29;20533;-69
2021/03/09 15:54:26;;;;;;;25.05;13.20;;;;;;;;;;4955177;29;20463;-73
2021/03/09 15:56:52;;;;;;;28.05;14.55;;;;;;;;;;4954878;29;20023;-71
2021/03/09 15:59:18;;;;;;;26.05;13.73;;;;;;;;;;4953828;29;20422;-71
2021/03/09 16:01:44;;;;;;;26.42;13.70;;;;;;;;;;4953111;29;20114;-72
2021/03/09 16:04:11;;;;;;;24.75;12.73;;;;;;;;;;4954168;29;20493;-73
2021/03/09 16:06:37;;;;;;;27.92;13.63;;;;;;;;;;4953262;29;20030;-73
2021/03/09 16:09:03;;;;;;;23.95;13.05;;;;;;;;;;4954987;29;20079;-74
2021/03/09 16:11:29;;;;;;;32.33;14.02;;;;;;;;;;4953742;29;20090;-70
2021/03/09 16:13:55;;;;;;;42.55;20.45;;;;;;;;;;4954419;29;20554;-72
2021/03/09 16:16:21;;;;;;;31.05;15.60;;;;;;;;;;4953519;29;20031;-73
2021/03/09 16:18:48;;;;;;;45.40;22.50;;;;;;;;;;4954648;29;20070;-71
2021/03/09 16:21:17;;;;;;;35.60;18.33;;;;;;;;;;4954192;29;20023;-71
2021/03/09 16:23:43;;;;;;;36.70;16.23;;;;;;;;;;4954495;29;20074;-72
2021/03/09 16:26:09;;;;;;;30.00;13.18;;;;;;;;;;4954600;29;20031;-73
2021/03/09 16:28:35;;;;;;;34.78;17.38;;;;;;;;;;4951862;29;20106;-72
2021/03/09 16:31:01;;;;;;;35.22;17.23;;;;;;;;;;4954476;29;20035;-74
2021/03/09 16:33:31;;;;;;;31.10;16.23;;;;;;;;;;4952450;28;20086;-73
2021/03/09 16:35:57;;;;;;;37.05;17.95;;;;;;;;;;4951885;29;20087;-73
2021/03/09 16:38:23;;;;;;;31.75;16.27;;;;;;;;;;4952858;28;20352;-73
2021/03/09 16:40:49;;;;;;;46.58;21.63;;;;;;;;;;4956752;29;20027;-73
2021/03/09 16:43:15;;;;;;;45.53;20.27;;;;;;;;;;4956467;29;20490;-77
2021/03/09 16:45:41;;;;;;;40.38;18.83;;;;;;;;;;4956186;29;20387;-74
2021/03/09 16:48:08;;;;;;;57.03;25.77;;;;;;;;;;4955892;29;20467;-74
2021/03/09 16:50:34;;;;;;;55.13;23.88;;;;;;;;;;4956089;28;20054;-75
2021/03/09 16:53:00;;;;;;;55.85;25.35;;;;;;;;;;4956483;29;20023;-74
2021/03/09 16:55:26;;;;;;;43.17;21.42;;;;;;;;;;4957779;28;20078;-77
2021/03/09 16:57:52;;;;;;;46.72;23.85;;;;;;;;;;4956486;29;20471;-74
2021/03/09 17:00:19;;;;;;;46.13;22.33;;;;;;;;;;4958054;29;20042;-74
2021/03/09 17:02:45;;;;;;;50.55;23.90;;;;;;;;;;4957946;29;20043;-74
2021/03/09 17:05:11;;;;;;;51.90;25.10;;;;;;;;;;4956674;29;20309;-74
2021/03/09 17:07:37;;;;;;;52.72;24.52;;;;;;;;;;4957945;29;20090;-78
2021/03/09 17:10:04;;;;;;;45.97;22.52;;;;;;;;;;4957198;29;20479;-73
2021/03/09 17:12:30;;;;;;;51.03;24.92;;;;;;;;;;4955506;29;20122;-73
2021/03/09 17:14:56;;;;;;;54.85;25.52;;;;;;;;;;4956521;29;20015;-73
2021/03/09 17:17:23;;;;;;;52.88;25.40;;;;;;;;;;4954976;29;20026;-74
2021/03/09 17:19:50;;;;;;;53.78;24.85;;;;;;;;;;4956315;29;20034;-75
2021/03/09 17:22:16;;;;;;;47.88;21.50;;;;;;;;;;4953652;29;20100;-76
2021/03/09 17:24:42;;;;;;;50.10;24.52;;;;;;;;;;4956080;29;20019;-77
2021/03/09 17:27:11;;;;;;;54.45;26.80;;;;;;;;;;4956485;29;20475;-76
2021/03/09 17:29:38;;;;;;;47.20;23.92;;;;;;;;;;4956343;29;20030;-75
2021/03/09 17:32:08;;;;;;;45.58;22.27;;;;;;;;;;4954820;28;20024;-74
2021/03/09 17:34:34;;;;;;;43.10;21.70;;;;;;;;;;4952581;29;20458;-75
2021/03/09 17:37:00;;;;;;;46.60;22.58;;;;;;;;;;4956236;29;20023;-72
2021/03/09 17:40:31;;;;;;;47.67;23.85;;;;;;;;;;5110579;27;20374;-72
2021/03/09 17:42:57;;;;;;;47.58;25.10;;;;;;;;;;5111249;28;20027;-71
2021/03/09 17:45:23;;;;;;;52.75;27.25;;;;;;;;;;5109239;28;20377;-71
2021/03/09 17:47:49;;;;;;;57.58;28.83;;;;;;;;;;5110521;28;20029;-73
2021/03/09 17:50:16;;;;;;;68.20;33.35;;;;;;;;;;5110775;28;20031;-73
2021/03/09 17:52:42;;;;;;;67.93;33.35;;;;;;;;;;5110098;28;20038;-71
2021/03/09 17:55:09;;;;;;;62.10;32.08;;;;;;;;;;5110243;28;20077;-69
2021/03/09 17:57:36;;;;;;;69.30;34.15;;;;;;;;;;5109392;28;20482;-68
2021/03/09 18:00:04;;;;;;;61.78;31.05;;;;;;;;;;5109889;28;20051;-71
2021/03/09 18:02:30;;;;;;;56.90;28.75;;;;;;;;;;5110499;28;20028;-71
2021/03/09 18:04:57;;;;;;;48.15;25.52;;;;;;;;;;5109668;28;20024;-70
2021/03/09 18:07:23;;;;;;;51.80;28.08;;;;;;;;;;5109822;28;20034;-71
2021/03/09 18:09:49;;;;;;;49.70;27.42;;;;;;;;;;5109219;28;20111;-68
2021/03/09 18:12:15;;;;;;;49.65;25.65;;;;;;;;;;5110181;28;20102;-69
2021/03/09 18:14:41;;;;;;;52.45;23.70;;;;;;;;;;5109470;28;20077;-69
2021/03/09 18:17:07;;;;;;;44.20;22.52;;;;;;;;;;5110774;28;20527;-72
2021/03/09 18:19:33;;;;;;;41.63;21.30;;;;;;;;;;5110493;28;20027;-72
2021/03/09 18:21:59;;;;;;;46.67;23.45;;;;;;;;;;5109083;28;20016;-69
2021/03/09 18:24:25;;;;;;;46.70;21.73;;;;;;;;;;5106647;28;20423;-74
2021/03/09 18:26:52;;;;;;;44.58;22.70;;;;;;;;;;5108745;28;20095;-70
2021/03/09 18:29:18;;;;;;;43.08;23.70;;;;;;;;;;5105225;28;20536;-74
2021/03/09 18:31:44;;;;;;;41.25;21.58;;;;;;;;;;5108258;28;20102;-74
2021/03/09 18:34:10;;;;;;;45.05;22.58;;;;;;;;;;5106166;28;20023;-75
2021/03/09 18:36:36;;;;;;;42.75;21.88;;;;;;;;;;5107583;28;20027;-75
2021/03/09 18:39:03;;;;;;;41.80;21.63;;;;;;;;;;5104518;28;20048;-79
2021/03/09 18:41:29;;;;;;;48.17;22.52;;;;;;;;;;5108326;28;20432;-77
2021/03/09 18:43:55;;;;;;;42.45;20.90;;;;;;;;;;5106673;28;20369;-74
2021/03/09 18:46:21;;;;;;;36.25;18.95;;;;;;;;;;5109325;28;20024;-78
2021/03/09 18:48:47;;;;;;;34.60;18.70;;;;;;;;;;5109153;28;20027;-76
2021/03/09 18:51:13;;;;;;;34.75;18.35;;;;;;;;;;5097217;28;20012;-75
2021/03/09 18:53:40;;;;;;;36.47;18.52;;;;;;;;;;5093964;28;20047;-74
2021/03/09 18:56:07;;;;;;;37.03;18.30;;;;;;;;;;5091582;28;20024;-69
2021/03/09 18:58:33;;;;;;;37.67;18.23;;;;;;;;;;5093010;28;20073;-70
2021/03/09 19:00:59;;;;;;;33.90;17.60;;;;;;;;;;5093502;28;20048;-69
2021/03/09 19:03:25;;;;;;;37.25;16.95;;;;;;;;;;5095293;28;20095;-68
2021/03/09 19:05:51;;;;;;;28.20;14.98;;;;;;;;;;5094475;28;20080;-70
2021/03/09 19:08:17;;;;;;;30.08;14.85;;;;;;;;;;5091319;28;20020;-71
2021/03/09 19:13:28;;;;;;;32.67;14.95;;;;;;;;;;5052856;22;20545;-66
2021/03/09 19:15:54;;;;;;;35.92;17.27;;;;;;;;;;5035048;28;20053;-70
2021/03/09 19:18:20;;;;;;;35.70;16.52;;;;;;;;;;5035134;28;20025;-70
2021/03/09 19:20:47;;;;;;;33.08;18.27;;;;;;;;;;5034373;28;20030;-69
2021/03/09 19:23:13;;;;;;;35.10;19.00;;;;;;;;;;5050120;28;20078;-72
2021/03/09 19:25:39;;;;;;;36.20;18.92;;;;;;;;;;5034843;28;20029;-71
2021/03/09 19:28:06;;;;;;;39.55;18.73;;;;;;;;;;5033670;28;20075;-71
2021/03/09 19:30:33;;;;;;;40.50;18.77;;;;;;;;;;5049241;28;20036;-71
2021/03/09 19:32:59;;;;;;;44.08;19.75;;;;;;;;;;5034296;28;20151;-70
2021/03/09 19:35:25;;;;;;;46.13;19.75;;;;;;;;;;5048415;28;20033;-70
2021/03/09 19:37:51;;;;;;;46.65;20.75;;;;;;;;;;5049570;28;20029;-69
2021/03/09 19:40:17;;;;;;;49.47;21.38;;;;;;;;;;5049456;28;20029;-70
2021/03/09 19:42:44;;;;;;;40.78;20.27;;;;;;;;;;5034740;28;20112;-71
2021/03/09 19:45:10;;;;;;;34.42;18.65;;;;;;;;;;5049182;28;20037;-71
2021/03/09 19:47:36;;;;;;;50.33;22.83;;;;;;;;;;5034008;28;20033;-73
2021/03/09 19:50:03;;;;;;;39.88;20.08;;;;;;;;;;5036624;28;20049;-71
2021/03/09 19:52:29;;;;;;;36.85;19.33;;;;;;;;;;5034036;28;20076;-71
2021/03/09 19:54:55;;;;;;;38.13;19.75;;;;;;;;;;5033732;28;20473;-70
2021/03/09 19:57:21;;;;;;;43.35;20.08;;;;;;;;;;5035355;28;20038;-71
2021/03/09 19:59:50;;;;;;;43.83;21.77;;;;;;;;;;5033595;28;20499;-70
2021/03/09 20:02:20;;;;;;;39.05;19.95;;;;;;;;;;5054480;28;20033;-70
2021/03/09 20:04:49;;;;;;;40.40;20.33;;;;;;;;;;5033026;28;20029;-71
2021/03/09 20:07:15;;;;;;;40.88;20.17;;;;;;;;;;5032414;28;20026;-70
2021/03/09 20:09:41;;;;;;;43.40;22.27;;;;;;;;;;5043008;28;20164;-71
2021/03/09 20:12:08;;;;;;;45.88;22.73;;;;;;;;;;5031027;28;20060;-69
2021/03/09 20:14:34;;;;;;;45.20;22.73;;;;;;;;;;5034203;28;20049;-70
2021/03/09 20:17:00;;;;;;;46.95;23.48;;;;;;;;;;5049355;28;20033;-70
2021/03/09 20:19:26;;;;;;;51.90;23.00;;;;;;;;;;5032132;28;20073;-68
2021/03/09 20:21:53;;;;;;;41.38;21.80;;;;;;;;;;5034021;28;20068;-70
2021/03/09 20:24:19;;;;;;;43.88;22.45;;;;;;;;;;5032185;28;20094;-70
2021/03/09 20:26:46;;;;;;;39.50;21.58;;;;;;;;;;5030388;28;20071;-72
2021/03/09 20:29:12;;;;;;;37.60;20.75;;;;;;;;;;5033330;28;20021;-68
2021/03/09 20:31:42;;;;;;;51.35;23.73;;;;;;;;;;5045099;28;20026;-70
2021/03/09 20:34:09;;;;;;;46.65;24.30;;;;;;;;;;5026581;28;20024;-72
2021/03/09 20:36:35;;;;;;;42.28;21.30;;;;;;;;;;5032858;28;20095;-70
2021/03/09 20:39:01;;;;;;;40.25;20.98;;;;;;;;;;5032396;28;20586;-69
2021/03/09 20:41:27;;;;;;;42.67;23.00;;;;;;;;;;5032271;28;20030;-68
2021/03/09 20:43:53;;;;;;;46.13;23.23;;;;;;;;;;5044795;28;20496;-67
2021/03/09 20:46:19;;;;;;;46.63;22.40;;;;;;;;;;5030923;28;20032;-70
2021/03/09 20:48:46;;;;;;;52.13;25.08;;;;;;;;;;5034522;28;20025;-70
2021/03/09 20:51:13;;;;;;;52.15;23.50;;;;;;;;;;5034737;28;20117;-69
2021/03/09 20:53:39;;;;;;;44.63;21.15;;;;;;;;;;5034824;28;20080;-71
2021/03/09 20:56:06;;;;;;;51.58;24.17;;;;;;;;;;5034690;28;20057;-69